OINR  Ramsar  Airport

Iran

Add Bookmark
ICAO OINR
IATA RZR
Type Airport
Status Operational
Latitude
36° 54' 35" N
36.909901
Longitude
50° 40' 46" E
50.679600
Local (GMT +4.5 ) UTC
Jul 24, 2016 07:09 pm Jul 24, 2016 14:39
Sunrise-Sunset Local UTC
Begin Civil Twilight 05:36 am 01:06
Sunrise 06:05 am 01:35
Sunset 08:22 pm 15:52
End Civil Twilight 08:51 pm 16:21
VFR
VFR
MVFR
MVFR
IFR
IFR
LIFR
LIFR
Unknown
Unavailable

Current Weather

METAR Observed MVFR
OINR 141900Z VRB02KT 9999 BKN025 24/21 Q1011 Thu, Jul 14, 2016 @ 19:00 UTC
(1 Week, 2 Days, 19 Hours, 39 Minutes ago)
Marginal Visual Flight Rules
Wind Visibility Clouds Conditions
Varies at 2 knots (4 kph) 10 km or more
  • Broken at 2,500 ft AGL
  • No significant weather
Temperatures Readings Precipitation
Current Temp
24°C
75°F
Dewpoint
21°C
70°F
Humidity 83%
Altimeter 29.85" Hg
Sea Level Pressure 1,011 mb
None Recorded

Additional weather within a 92.6km radius of OINR

Map ICAO Location
OINN 75km E/SE (111°)
VFR
VFR
MVFR
MVFR
IFR
IFR
LIFR
LIFR
Unknown
Unavailable
-
-

CheckWX.com is intended as a tool to help pilots better visualize weather data. It is not intended as a substitute for an official weather briefing obtained from a Flight Service Station. CheckWX.com does not meet the FAA requirements for an official pre-flight weather briefing. Therefore, it's important that pilots still call and obtain an official FSS pre-flight weather briefing.

© 2007-2016 CheckWX.com
14:39:06 UTC